Time;durP1;ratioP1;P1;durP2;ratioP2;P2;SDS_P1;SDS_P2;PMS_P1;PMS_P2;Temp;Humidity;BMP_temperature;BMP_pressure;BME280_temperature;BME280_humidity;BME280_pressure;Samples;Min_cycle;Max_cycle;Signal;HPM_P1;HPM_P2
2023/05/18 04:19:52;;;;;;;6.05;5.00;;;;;;;9.41;100.00;100479.12;5562865;32;218792;-87
2023/05/18 04:23:00;;;;;;;7.07;4.90;;;;;;;9.35;100.00;100479.41;5558072;32;33252;-85
2023/05/18 04:26:08;;;;;;;6.50;4.70;;;;;;;9.41;100.00;100483.59;5550819;32;35247;-85
2023/05/18 04:29:18;;;;;;;6.15;4.80;;;;;;;9.41;100.00;100488.88;5557021;32;33758;-84
2023/05/18 04:32:29;;;;;;;5.68;4.95;;;;;;;9.42;100.00;100488.78;5558833;32;34223;-84
2023/05/18 04:35:39;;;;;;;5.93;5.05;;;;;;;9.44;100.00;100489.59;5550737;32;33558;-85
2023/05/18 04:38:50;;;;;;;5.05;4.55;;;;;;;9.46;100.00;100489.56;5550850;32;33900;-85
2023/05/18 04:41:58;;;;;;;5.07;4.57;;;;;;;9.46;100.00;100497.50;5550297;32;33958;-85
2023/05/18 04:45:06;;;;;;;6.20;5.35;;;;;;;9.56;100.00;100497.94;5550476;32;33632;-85
2023/05/18 04:48:17;;;;;;;7.78;5.18;;;;;;;9.54;100.00;100499.78;5549014;32;33611;-85
2023/05/18 04:51:25;;;;;;;7.18;5.20;;;;;;;9.59;100.00;100499.59;5550107;32;33779;-85
2023/05/18 04:54:32;;;;;;;6.82;5.55;;;;;;;9.60;100.00;100496.88;5550541;32;34193;-85
2023/05/18 04:57:40;;;;;;;8.43;5.97;;;;;;;9.58;100.00;100501.37;5549723;32;36312;-85
2023/05/18 05:00:49;;;;;;;8.48;5.57;;;;;;;9.61;100.00;100501.22;5558892;32;33934;-85
2023/05/18 05:03:57;;;;;;;5.82;5.00;;;;;;;9.64;100.00;100509.06;5549674;32;33710;-85
2023/05/18 05:07:05;;;;;;;7.40;5.90;;;;;;;10.07;100.00;100503.62;5548421;32;33782;-85
2023/05/18 05:10:11;;;;;;;6.47;5.50;;;;;;;10.23;100.00;100508.22;5548492;32;33990;-85
2023/05/18 05:13:19;;;;;;;8.00;6.05;;;;;;;10.25;100.00;100509.88;5552783;32;35116;-89
2023/05/18 05:16:26;;;;;;;7.45;5.65;;;;;;;10.23;100.00;100513.53;5550166;32;34160;-90
2023/05/18 05:19:34;;;;;;;7.18;5.32;;;;;;;10.27;100.00;100511.59;5543952;32;33827;-86
2023/05/18 05:22:40;;;;;;;6.15;5.55;;;;;;;10.51;100.00;100521.09;5544431;32;33830;-87
2023/05/18 05:25:47;;;;;;;6.07;5.47;;;;;;;10.55;100.00;100513.84;5546601;32;34676;-87
2023/05/18 05:28:54;;;;;;;6.60;6.00;;;;;;;10.60;100.00;100519.78;5532859;32;35218;-86
2023/05/18 05:31:59;;;;;;;7.78;6.32;;;;;;;10.38;100.00;100522.56;5515399;32;33811;-86
2023/05/18 05:35:06;;;;;;;6.10;5.20;;;;;;;10.49;100.00;100516.78;5526916;32;34066;-86
2023/05/18 05:38:21;;;;;;;6.18;4.85;;;;;;;10.32;100.00;100523.69;5531846;32;34860;-86
2023/05/18 05:41:30;;;;;;;6.05;5.45;;;;;;;10.27;100.00;100527.50;5551125;32;33773;-87
2023/05/18 05:44:39;;;;;;;7.03;5.85;;;;;;;10.31;100.00;100531.75;5549324;32;33450;-87
2023/05/18 05:47:48;;;;;;;7.93;5.60;;;;;;;10.29;100.00;100536.25;5551208;32;33743;-86
2023/05/18 05:50:55;;;;;;;9.63;5.80;;;;;;;10.46;100.00;100535.50;5547955;32;34193;-86
2023/05/18 05:54:03;;;;;;;6.05;5.45;;;;;;;10.53;100.00;100536.94;5545518;32;33709;-87
2023/05/18 05:57:09;;;;;;;5.60;5.10;;;;;;;10.48;100.00;100545.13;5550639;32;34059;-85
2023/05/18 06:00:16;;;;;;;6.25;5.20;;;;;;;10.54;100.00;100543.97;5540076;32;34239;-85
2023/05/18 06:03:22;;;;;;;7.62;5.28;;;;;;;10.54;100.00;100541.31;5543298;32;33984;-84
2023/05/18 06:06:27;;;;;;;6.20;4.90;;;;;;;10.55;100.00;100547.47;5526956;32;34339;-85
2023/05/18 06:09:30;;;;;;;6.32;5.20;;;;;;;10.36;100.00;100550.97;5538802;32;34099;-85
2023/05/18 06:12:34;;;;;;;6.00;5.35;;;;;;;10.40;100.00;100549.88;5540661;32;33892;-84
2023/05/18 06:15:39;;;;;;;6.97;5.40;;;;;;;10.36;100.00;100559.75;5546758;32;34827;-85
2023/05/18 06:18:44;;;;;;;8.27;5.45;;;;;;;10.35;100.00;100562.47;5547384;32;33832;-84
2023/05/18 06:21:48;;;;;;;5.93;5.05;;;;;;;10.35;100.00;100562.47;5551212;32;33669;-84
2023/05/18 06:24:53;;;;;;;6.05;5.45;;;;;;;10.34;100.00;100563.41;5545970;32;33909;-84
2023/05/18 06:27:57;;;;;;;6.03;5.45;;;;;;;10.35;100.00;100567.78;5547485;32;34539;-86
2023/05/18 06:31:08;;;;;;;6.05;5.28;;;;;;;10.38;100.00;100570.31;5547494;32;32149;-90
2023/05/18 06:34:10;;;;;;;5.93;5.28;;;;;;;10.57;100.00;100570.31;5551407;32;34123;-85
2023/05/18 06:37:16;;;;;;;9.32;4.20;;;;;;;10.54;100.00;100573.13;5544878;32;33982;-84
2023/05/18 06:40:20;;;;;;;3.72;2.83;;;;;;;10.49;100.00;100572.47;5539737;32;34043;-85
2023/05/18 06:43:27;;;;;;;3.28;2.72;;;;;;;10.57;100.00;100578.28;5543185;32;32456;-86
2023/05/18 06:46:33;;;;;;;4.10;1.62;;;;;;;10.59;100.00;100583.53;5540260;32;32622;-84
2023/05/18 06:49:41;;;;;;;2.67;1.55;;;;;;;10.67;100.00;100592.00;5539190;32;34686;-84
2023/05/18 06:52:46;;;;;;;1.27;1.05;;;;;;;10.75;100.00;100586.31;5543205;32;34539;-83
2023/05/18 06:55:53;;;;;;;2.17;0.90;;;;;;;10.84;100.00;100593.84;5540391;32;34010;-84
2023/05/18 06:58:59;;;;;;;1.40;1.30;;;;;;;10.77;100.00;100592.44;5534566;32;33842;-84
2023/05/18 07:02:06;;;;;;;1.85;1.25;;;;;;;10.79;100.00;100590.56;5539828;32;33884;-84
2023/05/18 07:05:11;;;;;;;3.17;1.45;;;;;;;10.77;100.00;100595.94;5549474;32;33601;-85
2023/05/18 07:08:17;;;;;;;1.45;1.35;;;;;;;10.71;100.00;100598.88;5544339;32;34882;-84
2023/05/18 07:11:22;;;;;;;1.48;1.17;;;;;;;10.70;100.00;100602.47;5542963;32;34704;-84
2023/05/18 07:14:30;;;;;;;6.30;1.48;;;;;;;10.80;100.00;100602.03;5550178;32;33709;-84
2023/05/18 07:17:38;;;;;;;3.47;1.58;;;;;;;10.81;100.00;100603.75;5548458;32;33724;-84
2023/05/18 07:20:46;;;;;;;1.73;1.30;;;;;;;10.84;100.00;100604.47;5540738;32;34015;-86
2023/05/18 07:23:52;;;;;;;1.37;1.27;;;;;;;10.85;100.00;100613.28;5546311;32;34227;-85
2023/05/18 07:26:56;;;;;;;1.45;1.30;;;;;;;10.90;100.00;100611.28;5547482;32;34665;-85
2023/05/18 07:30:04;;;;;;;1.73;1.30;;;;;;;10.81;100.00;100620.53;5541628;32;33394;-87
2023/05/18 07:33:10;;;;;;;1.65;1.50;;;;;;;10.83;100.00;100620.47;5544799;32;34399;-86
2023/05/18 07:36:14;;;;;;;1.55;1.37;;;;;;;10.92;100.00;100626.19;5547494;32;33880;-86
2023/05/18 07:39:18;;;;;;;1.17;1.08;;;;;;;10.95;100.00;100622.53;5547525;32;33459;-84
2023/05/18 07:42:22;;;;;;;1.98;1.40;;;;;;;10.88;100.00;100621.09;5550501;32;33842;-83
2023/05/18 07:45:28;;;;;;;3.03;1.00;;;;;;;10.95;100.00;100624.34;5538143;32;33713;-84
2023/05/18 07:48:32;;;;;;;1.30;1.20;;;;;;;10.90;100.00;100628.06;5543689;32;33641;-84
2023/05/18 07:51:37;;;;;;;3.60;1.10;;;;;;;10.95;100.00;100634.97;5559836;32;33654;-83
2023/05/18 07:54:44;;;;;;;1.30;1.20;;;;;;;11.04;100.00;100632.72;5547083;32;34455;-89
2023/05/18 07:57:51;;;;;;;1.33;1.12;;;;;;;11.01;100.00;100632.84;5550963;32;33744;-91
2023/05/18 08:00:56;;;;;;;1.15;0.90;;;;;;;11.07;100.00;100630.84;5540663;32;32461;-86
2023/05/18 08:04:01;;;;;;;1.55;1.20;;;;;;;11.13;100.00;100631.44;5539204;32;34078;-87
2023/05/18 08:07:07;;;;;;;1.15;1.05;;;;;;;11.24;100.00;100640.66;5543615;32;33885;-85
2023/05/18 08:10:13;;;;;;;2.28;1.00;;;;;;;11.37;100.00;100644.44;5548712;32;33587;-84
2023/05/18 08:13:20;;;;;;;1.55;1.15;;;;;;;11.46;100.00;100645.78;5546367;32;34799;-85
2023/05/18 08:16:26;;;;;;;2.67;1.20;;;;;;;11.40;100.00;100643.41;5550313;32;33688;-85
2023/05/18 08:19:29;;;;;;;2.83;1.60;;;;;;;11.48;100.00;100651.03;5543517;32;33571;-85
2023/05/18 08:22:33;;;;;;;2.83;1.30;;;;;;;11.69;100.00;100649.97;5546058;32;34823;-84
2023/05/18 08:25:38;;;;;;;2.35;1.20;;;;;;;11.82;100.00;100649.34;5544372;32;34327;-85
2023/05/18 08:28:44;;;;;;;7.00;1.80;;;;;;;11.65;100.00;100650.19;5538453;32;34799;-84
2023/05/18 08:31:48;;;;;;;1.92;0.98;;;;;;;12.03;100.00;100651.84;5549368;32;33830;-83
2023/05/18 08:34:53;;;;;;;2.50;1.30;;;;;;;12.40;100.00;100653.47;5549512;32;34940;-84
2023/05/18 08:37:56;;;;;;;3.08;1.37;;;;;;;12.36;100.00;100653.69;5539783;32;33909;-86
2023/05/18 08:41:04;;;;;;;3.62;1.20;;;;;;;12.33;100.00;100652.06;5547554;32;33927;-86
2023/05/18 08:44:14;;;;;;;2.33;0.80;;;;;;;12.12;100.00;100652.25;5545849;32;34026;-86
2023/05/18 08:47:24;;;;;;;5.62;1.52;;;;;;;12.31;100.00;100645.97;5545217;32;33789;-86
2023/05/18 08:50:31;;;;;;;3.58;1.15;;;;;;;12.23;100.00;100650.84;5547754;32;34728;-86
2023/05/18 08:53:38;;;;;;;1.58;1.33;;;;;;;12.43;100.00;100647.13;5538510;32;33840;-86
2023/05/18 08:56:46;;;;;;;1.40;1.10;;;;;;;12.27;100.00;100655.03;5534042;32;34358;-85
2023/05/18 08:59:52;;;;;;;1.60;1.20;;;;;;;12.38;100.00;100651.84;5549104;32;33514;-86
2023/05/18 09:02:58;;;;;;;1.35;1.20;;;;;;;12.45;100.00;100655.88;5537681;32;33633;-83
2023/05/18 09:06:03;;;;;;;3.20;1.00;;;;;;;12.74;100.00;100653.47;5543270;32;33593;-83
2023/05/18 09:09:07;;;;;;;2.78;1.00;;;;;;;12.91;100.00;100649.88;5547832;32;32320;-85
2023/05/18 09:12:13;;;;;;;4.10;1.30;;;;;;;12.95;100.00;100647.91;5538354;32;33868;-85
2023/05/18 09:15:17;;;;;;;0.80;0.80;;;;;;;13.04;100.00;100651.84;5535107;32;33865;-85
2023/05/18 09:18:21;;;;;;;0.88;0.88;;;;;;;13.05;100.00;100645.56;5541096;32;34043;-89
2023/05/18 09:21:31;;;;;;;6.10;0.90;;;;;;;13.32;100.00;100639.63;5549489;32;33818;-88
2023/05/18 09:24:37;;;;;;;1.87;1.05;;;;;;;13.20;100.00;100641.19;5552663;32;33740;-85
2023/05/18 09:27:41;;;;;;;1.75;1.00;;;;;;;13.46;100.00;100645.06;5554341;32;33831;-86
2023/05/18 09:30:48;;;;;;;1.33;1.10;;;;;;;13.67;100.00;100650.09;5548959;32;33756;-86
2023/05/18 09:33:58;;;;;;;2.65;1.20;;;;;;;14.01;100.00;100652.56;5541874;32;33635;-85
2023/05/18 09:37:03;;;;;;;3.80;1.30;;;;;;;14.17;100.00;100646.31;5532978;32;33916;-83
2023/05/18 09:40:07;;;;;;;0.90;0.90;;;;;;;14.36;100.00;100651.38;5550037;32;33801;-84
2023/05/18 09:43:10;;;;;;;4.45;1.30;;;;;;;14.29;100.00;100653.59;5550042;32;33457;-83
2023/05/18 09:46:13;;;;;;;2.08;1.30;;;;;;;13.99;100.00;100654.47;5547415;32;34747;-85
2023/05/18 09:49:21;;;;;;;3.80;1.48;;;;;;;14.08;100.00;100656.59;5550291;32;33872;-84
2023/05/18 09:52:29;;;;;;;2.17;1.77;;;;;;;14.12;100.00;100657.25;5542521;32;34169;-84
2023/05/18 09:55:37;;;;;;;2.67;1.52;;;;;;;14.07;100.00;100659.38;5548672;32;33489;-84
2023/05/18 09:58:41;;;;;;;4.28;1.40;;;;;;;14.00;100.00;100656.19;5550854;32;32895;-84
2023/05/18 10:02:00;;;;;;;1.83;1.60;;;;;;;14.05;100.00;100662.12;5547654;32;34623;-84
2023/05/18 10:05:18;;;;;;;2.08;1.70;;;;;;;14.31;100.00;100657.00;5538308;32;33674;-84
2023/05/18 10:08:24;;;;;;;1.92;1.70;;;;;;;14.63;100.00;100661.31;5545144;32;33800;-84
2023/05/18 10:11:32;;;;;;;1.55;1.42;;;;;;;14.31;100.00;100661.47;5546156;32;33675;-84
2023/05/18 10:14:40;;;;;;;3.30;2.70;;;;;;;14.32;100.00;100652.53;5547219;32;34610;-84
2023/05/18 10:17:49;;;;;;;4.03;3.12;;;;;;;14.43;100.00;100652.72;5538027;32;34867;-85
2023/05/18 10:21:00;;;;;;;2.53;2.33;;;;;;;14.50;100.00;100656.75;5538403;32;33831;-84
2023/05/18 10:24:07;;;;;;;3.28;2.45;;;;;;;14.51;100.00;100652.25;5540634;32;33845;-84
2023/05/18 10:27:16;;;;;;;2.55;2.08;;;;;;;14.40;100.00;100656.44;5543634;32;34754;-85
2023/05/18 10:30:22;;;;;;;2.50;1.27;;;;;;;15.03;100.00;100656.12;5553693;32;33912;-84
2023/05/18 10:33:31;;;;;;;1.60;1.45;;;;;;;15.04;100.00;100657.00;5556919;32;34039;-84
2023/05/18 10:36:38;;;;;;;2.97;1.65;;;;;;;15.11;100.00;100655.66;5535175;32;35148;-83
2023/05/18 10:39:45;;;;;;;1.85;1.75;;;;;;;15.06;100.00;100653.28;5553385;32;33800;-84
2023/05/18 10:43:08;;;;;;;1.87;1.67;;;;;;;15.17;100.00;100662.41;5550191;32;35453;-84
2023/05/18 10:46:15;;;;;;;5.70;1.92;;;;;;;15.05;100.00;100667.56;5545843;32;34201;-84
2023/05/18 10:49:23;;;;;;;1.42;1.02;;;;;;;14.89;100.00;100662.34;5538916;32;33470;-86
2023/05/18 10:52:30;;;;;;;1.35;1.12;;;;;;;14.73;100.00;100669.59;5543376;32;33552;-85
2023/05/18 10:55:34;;;;;;;3.42;1.60;;;;;;;15.05;100.00;100661.41;5542659;32;34356;-85
2023/05/18 10:58:39;;;;;;;1.00;1.00;;;;;;;15.17;100.00;100659.72;5541535;32;32538;-86
2023/05/18 11:01:45;;;;;;;3.42;2.87;;;;;;;14.91;100.00;100663.13;5544492;32;34584;-86
2023/05/18 11:04:48;;;;;;;2.95;2.53;;;;;;;14.88;100.00;100659.81;5543265;32;33879;-87
2023/05/18 11:08:04;;;;;;;3.35;2.20;;;;;;;14.55;100.00;100661.78;5538107;32;33854;-86
2023/05/18 11:11:08;;;;;;;3.15;1.70;;;;;;;14.50;100.00;100662.09;5538667;32;33938;-85
2023/05/18 11:14:12;;;;;;;3.78;1.23;;;;;;;14.37;100.00;100661.97;5545886;32;34132;-86
2023/05/18 11:17:17;;;;;;;1.67;1.27;;;;;;;14.00;100.00;100665.06;5552201;32;34152;-86
2023/05/18 11:20:25;;;;;;;1.50;1.40;;;;;;;14.01;100.00;100666.78;5542739;32;33869;-85
2023/05/18 11:23:32;;;;;;;1.90;1.70;;;;;;;13.69;100.00;100672.19;5548809;32;33799;-84
2023/05/18 11:26:40;;;;;;;1.50;1.40;;;;;;;13.50;100.00;100666.19;5547970;32;33966;-85
2023/05/18 11:29:49;;;;;;;2.20;1.77;;;;;;;13.60;100.00;100670.94;5547447;32;34510;-84
2023/05/18 11:33:07;;;;;;;;;;;;;;;13.73;100.00;100676.38;5547905;32;33886;-85
2023/05/18 11:36:12;;;;;;;1.25;1.15;;;;;;;13.74;100.00;100672.78;5545747;32;34310;-85
2023/05/18 11:39:23;;;;;;;1.55;1.42;;;;;;;13.58;100.00;100677.28;5540050;32;34190;-86
2023/05/18 11:42:32;;;;;;;1.77;1.67;;;;;;;13.71;100.00;100683.63;5540033;32;33592;-86
2023/05/18 11:45:57;;;;;;;1.70;1.40;;;;;;;13.45;100.00;100679.75;5548041;32;34635;-85
2023/05/18 11:49:15;;;;;;;2.80;1.90;;;;;;;13.59;100.00;100681.69;5541474;32;34161;-86
2023/05/18 11:52:23;;;;;;;1.83;1.50;;;;;;;13.57;100.00;100684.41;5546365;32;33809;-87
2023/05/18 11:55:40;;;;;;;2.60;1.85;;;;;;;13.58;100.00;100685.28;5539017;32;33840;-87
2023/05/18 11:58:46;;;;;;;2.37;1.98;;;;;;;13.52;100.00;100685.66;5541733;32;33868;-87
2023/05/18 12:01:56;;;;;;;1.80;1.70;;;;;;;13.61;100.00;100685.97;5533120;32;33970;-87
2023/05/18 12:05:07;;;;;;;1.70;1.60;;;;;;;13.65;100.00;100689.31;5535832;32;33727;-87
2023/05/18 12:08:11;;;;;;;1.70;1.60;;;;;;;13.56;100.00;100689.84;5531682;32;33878;-86
2023/05/18 12:11:15;;;;;;;3.40;1.70;;;;;;;13.71;100.00;100691.63;5541839;32;33531;-86
2023/05/18 12:14:20;;;;;;;1.77;1.67;;;;;;;13.77;100.00;100685.06;5553959;32;33930;-87
2023/05/18 12:17:44;;;;;;;3.45;2.80;;;;;;;13.66;100.00;100693.69;5552013;32;34702;-86
2023/05/18 12:20:50;;;;;;;3.55;1.60;;;;;;;13.56;100.00;100689.84;5543576;32;33900;-91
2023/05/18 12:23:59;;;;;;;2.22;1.60;;;;;;;13.55;100.00;100693.44;5530242;32;34090;-87
2023/05/18 12:27:08;;;;;;;3.20;1.60;;;;;;;13.55;100.00;100691.66;5542018;32;34001;-86
2023/05/18 12:30:24;;;;;;;1.75;1.58;;;;;;;13.69;100.00;100693.50;5550026;32;33769;-86
2023/05/18 12:33:28;;;;;;;1.40;1.30;;;;;;;13.79;100.00;100695.66;5537282;32;34115;-86
2023/05/18 12:36:33;;;;;;;2.65;1.40;;;;;;;13.94;100.00;100683.22;5537826;32;33784;-87
2023/05/18 12:39:37;;;;;;;3.47;1.40;;;;;;;14.09;100.00;100684.13;5541956;32;33660;-86
2023/05/18 12:42:59;;;;;;;1.40;1.30;;;;;;;14.24;100.00;100685.84;5533541;32;33604;-86
2023/05/18 12:46:04;;;;;;;1.73;1.30;;;;;;;14.49;100.00;100681.69;5546379;32;34421;-87
2023/05/18 12:49:10;;;;;;;2.00;1.30;;;;;;;14.54;100.00;100686.78;5547439;32;33884;-87
2023/05/18 12:52:15;;;;;;;1.60;1.50;;;;;;;14.57;100.00;100680.38;5547061;32;34025;-88
2023/05/18 12:55:20;;;;;;;2.08;1.90;;;;;;;14.41;100.00;100678.66;5549649;32;33367;-87
2023/05/18 12:58:25;;;;;;;2.30;2.12;;;;;;;14.42;100.00;100681.22;5535098;32;34047;-86
2023/05/18 13:01:29;;;;;;;1.62;1.52;;;;;;;14.36;100.00;100684.28;5549264;32;33834;-85
2023/05/18 13:04:35;;;;;;;1.60;1.40;;;;;;;14.31;100.00;100686.34;5540041;32;33895;-86
2023/05/18 13:07:43;;;;;;;1.40;1.30;;;;;;;14.17;100.00;100689.84;5553207;32;34081;-86
2023/05/18 13:10:49;;;;;;;1.33;1.10;;;;;;;14.27;100.00;100688.34;5560239;32;34164;-85
2023/05/18 13:14:09;;;;;;;1.50;1.40;;;;;;;14.32;100.00;100684.56;5561779;32;33340;-86
2023/05/18 13:17:21;;;;;;;1.83;1.40;;;;;;;14.21;100.00;100686.06;5545242;32;34135;-86
2023/05/18 13:20:36;;;;;;;1.40;1.30;;;;;;;14.28;100.00;100679.41;5543336;32;33948;-86
2023/05/18 13:23:40;;;;;;;1.77;1.30;;;;;;;14.26;100.00;100681.31;5544308;32;34674;-90
2023/05/18 13:26:44;;;;;;;1.40;1.27;;;;;;;14.25;100.00;100681.41;5539398;32;33800;-87
2023/05/18 13:29:51;;;;;;;1.83;1.70;;;;;;;14.12;100.00;100678.59;5532638;32;33457;-86
2023/05/18 13:32:56;;;;;;;3.83;1.30;;;;;;;14.17;100.00;100687.19;5540713;32;33273;-86
2023/05/18 13:36:01;;;;;;;1.65;1.23;;;;;;;14.35;100.00;100693.25;5553066;32;33653;-86
2023/05/18 13:39:08;;;;;;;1.37;1.27;;;;;;;14.37;100.00;100690.44;5551379;32;33988;-85
2023/05/18 13:42:19;;;;;;;1.33;1.27;;;;;;;14.19;100.00;100695.97;5549387;32;33886;-86
2023/05/18 13:45:28;;;;;;;2.08;1.20;;;;;;;14.05;100.00;100693.25;5552154;32;34836;-85
2023/05/18 13:48:36;;;;;;;3.72;1.50;;;;;;;14.17;100.00;100694.34;5552369;32;34032;-84
2023/05/18 13:51:43;;;;;;;1.42;1.10;;;;;;;14.18;100.00;100686.22;5550770;32;34748;-85
2023/05/18 13:54:48;;;;;;;3.67;1.58;;;;;;;14.18;100.00;100691.56;5550888;32;33596;-86
2023/05/18 13:57:54;;;;;;;1.92;1.60;;;;;;;14.18;100.00;100701.41;5552389;32;34614;-86
2023/05/18 14:01:02;;;;;;;1.83;1.58;;;;;;;14.10;100.00;100693.84;5551309;32;34562;-86
2023/05/18 14:04:09;;;;;;;1.75;1.55;;;;;;;14.13;100.00;100696.34;5550431;32;34069;-85
2023/05/18 14:07:16;;;;;;;1.37;1.27;;;;;;;14.29;100.00;100701.63;5551551;32;34589;-85
2023/05/18 14:10:21;;;;;;;5.40;1.75;;;;;;;14.39;100.00;100701.91;5552190;32;34342;-85
2023/05/18 14:13:27;;;;;;;2.42;1.90;;;;;;;14.32;100.00;100705.91;5552632;32;34140;-85
2023/05/18 14:16:37;;;;;;;1.77;1.67;;;;;;;14.31;100.00;100698.81;5551828;32;33967;-84
2023/05/18 14:19:44;;;;;;;2.87;1.58;;;;;;;14.24;100.00;100709.03;5551374;32;34037;-84
2023/05/18 14:22:54;;;;;;;2.12;1.92;;;;;;;14.13;100.00;100707.00;5549946;32;33624;-84
2023/05/18 14:25:59;;;;;;;2.05;1.73;;;;;;;14.13;100.00;100709.69;5551568;32;34974;-84
2023/05/18 14:29:06;;;;;;;1.48;1.37;;;;;;;13.94;100.00;100708.06;5552050;32;33688;-85
2023/05/18 14:32:13;;;;;;;1.77;1.67;;;;;;;13.81;100.00;100707.06;5551264;32;34866;-86
2023/05/18 14:35:22;;;;;;;2.20;1.50;;;;;;;13.78;100.00;100708.09;5551361;32;34334;-90
2023/05/18 14:38:29;;;;;;;1.95;1.35;;;;;;;13.79;100.00;100711.66;5552611;32;33631;-86
2023/05/18 14:41:36;;;;;;;5.30;1.80;;;;;;;13.78;100.00;100710.78;5552021;32;34134;-86
2023/05/18 14:44:43;;;;;;;1.37;1.30;;;;;;;13.78;100.00;100713.44;5551993;32;33929;-85
2023/05/18 14:47:52;;;;;;;3.12;1.35;;;;;;;13.80;100.00;100716.03;5552413;32;33492;-84
2023/05/18 14:50:58;;;;;;;1.95;1.50;;;;;;;13.88;100.00;100713.75;5552396;32;34454;-85
2023/05/18 14:54:04;;;;;;;2.25;1.33;;;;;;;13.83;100.00;100716.72;5553392;32;33787;-85
2023/05/18 14:57:12;;;;;;;1.50;1.40;;;;;;;13.88;100.00;100725.31;5553782;32;34827;-85
2023/05/18 15:00:19;;;;;;;4.18;1.30;;;;;;;13.77;100.00;100717.06;5553208;32;34635;-85
2023/05/18 15:03:26;;;;;;;1.95;1.12;;;;;;;13.68;100.00;100722.94;5552078;32;33908;-86
2023/05/18 15:06:36;;;;;;;1.35;1.20;;;;;;;13.67;100.00;100727.41;5552757;32;33920;-86
2023/05/18 15:09:43;;;;;;;2.35;1.27;;;;;;;13.55;100.00;100723.62;5552992;32;33844;-86
2023/05/18 15:12:51;;;;;;;1.67;1.40;;;;;;;13.56;100.00;100721.81;5553050;32;33765;-85
2023/05/18 15:16:01;;;;;;;1.30;1.20;;;;;;;13.62;100.00;100726.78;5553949;32;33833;-85
2023/05/18 15:19:09;;;;;;;2.72;1.60;;;;;;;13.55;100.00;100722.75;5553598;32;34214;-85
2023/05/18 15:22:19;;;;;;;1.77;1.60;;;;;;;13.66;100.00;100725.69;5553460;32;34023;-85
2023/05/18 15:25:29;;;;;;;2.00;1.80;;;;;;;13.60;100.00;100715.37;5552964;32;33791;-85
2023/05/18 15:28:39;;;;;;;4.12;1.70;;;;;;;13.54;100.00;100723.72;5552969;32;34384;-85
2023/05/18 15:31:49;;;;;;;1.55;1.45;;;;;;;13.50;100.00;100725.69;5552985;32;33817;-85
2023/05/18 15:34:58;;;;;;;2.45;1.77;;;;;;;13.60;100.00;100723.38;5553534;32;33857;-85
